Time;durP1;ratioP1;P1;durP2;ratioP2;P2;SDS_P1;SDS_P2;PMS_P1;PMS_P2;Temp;Humidity;BMP_temperature;BMP_pressure;BME280_temperature;BME280_humidity;BME280_pressure;Samples;Min_cycle;Max_cycle;Signal;HPM_P1;HPM_P2
2023/08/09 00:00:37;;;;;;;1.20;1.20;;;;;;;;;;6211467;23;20202;-33
2023/08/09 00:03:05;;;;;;;4.00;2.27;;;;;;;;;;6212815;23;20209;-30
2023/08/09 00:05:33;;;;;;;1.40;1.23;;;;;;;;;;6212175;23;20455;-31
2023/08/09 00:08:00;;;;;;;1.43;1.33;;;;;;;;;;6210689;23;20197;-29
2023/08/09 00:10:27;;;;;;;1.57;1.40;;;;;;;;;;6211717;23;20680;-46
2023/08/09 00:12:54;;;;;;;2.10;1.30;;;;;;;;;;6209287;23;20178;-39
2023/08/09 00:15:21;;;;;;;3.80;1.40;;;;;;;;;;6211352;23;20197;-38
2023/08/09 00:17:48;;;;;;;3.77;1.60;;;;;;;;;;6212050;23;20237;-34
2023/08/09 00:20:17;;;;;;;2.33;1.40;;;;;;;;;;6212279;23;20252;-36
2023/08/09 00:22:44;;;;;;;2.93;1.40;;;;;;;;;;6210173;23;20497;-35
2023/08/09 00:25:12;;;;;;;1.60;1.50;;;;;;;;;;6212125;23;20185;-33
2023/08/09 00:27:39;;;;;;;1.47;1.10;;;;;;;;;;6209325;23;20213;-40
2023/08/09 00:30:08;;;;;;;1.33;1.23;;;;;;;;;;6212117;23;20285;-35
2023/08/09 00:32:35;;;;;;;1.67;1.40;;;;;;;;;;6212692;23;20178;-40
2023/08/09 00:35:03;;;;;;;2.77;1.70;;;;;;;;;;6213105;23;20182;-40
2023/08/09 00:37:32;;;;;;;1.97;1.50;;;;;;;;;;6209972;23;20178;-35
2023/08/09 00:40:00;;;;;;;2.37;1.50;;;;;;;;;;6212407;23;20199;-37
2023/08/09 00:42:27;;;;;;;2.23;1.43;;;;;;;;;;6211542;23;20273;-37
2023/08/09 00:44:54;;;;;;;1.77;1.50;;;;;;;;;;6212454;23;20178;-36
2023/08/09 00:47:21;;;;;;;1.50;1.37;;;;;;;;;;6212520;23;20182;-37
2023/08/09 00:49:48;;;;;;;2.40;1.60;;;;;;;;;;6212497;23;20280;-35
2023/08/09 00:52:17;;;;;;;2.13;1.40;;;;;;;;;;6210340;23;20193;-43
2023/08/09 00:54:46;;;;;;;1.83;1.60;;;;;;;;;;6212035;23;20213;-34
2023/08/09 00:57:14;;;;;;;1.43;1.33;;;;;;;;;;6210516;23;20186;-37
2023/08/09 00:59:41;;;;;;;2.43;1.67;;;;;;;;;;6211899;23;20202;-35
2023/08/09 01:02:09;;;;;;;2.47;1.50;;;;;;;;;;6212776;23;20178;-37
2023/08/09 01:04:36;;;;;;;1.77;1.30;;;;;;;;;;6213338;23;20380;-41
2023/08/09 01:07:08;;;;;;;1.70;1.07;;;;;;;;;;6210365;23;20178;-42
2023/08/09 01:09:37;;;;;;;1.60;1.47;;;;;;;;;;6212824;23;20288;-42
2023/08/09 01:12:08;;;;;;;2.80;1.60;;;;;;;;;;6211025;23;20233;-41
2023/08/09 01:14:37;;;;;;;1.77;1.67;;;;;;;;;;6212167;23;20232;-39
2023/08/09 01:17:05;;;;;;;1.47;1.30;;;;;;;;;;6211859;23;20178;-43
2023/08/09 01:19:35;;;;;;;1.07;1.00;;;;;;;;;;6212562;23;20226;-43
2023/08/09 01:22:05;;;;;;;3.03;1.40;;;;;;;;;;6209821;23;20669;-39
2023/08/09 01:24:34;;;;;;;1.70;1.60;;;;;;;;;;6212438;23;20163;-37
2023/08/09 01:27:01;;;;;;;2.47;1.40;;;;;;;;;;6210477;23;20181;-36
2023/08/09 01:29:28;;;;;;;1.30;1.17;;;;;;;;;;6211780;23;20201;-35
2023/08/09 01:31:55;;;;;;;1.40;1.30;;;;;;;;;;6216370;23;20182;-36
2023/08/09 01:34:23;;;;;;;1.47;1.37;;;;;;;;;;6216209;23;20257;-39
2023/08/09 01:36:51;;;;;;;1.77;1.30;;;;;;;;;;6210817;23;20182;-41
2023/08/09 01:39:22;;;;;;;1.60;1.17;;;;;;;;;;6212325;23;20194;-40
2023/08/09 01:41:51;;;;;;;2.67;1.30;;;;;;;;;;6211941;23;20204;-41
2023/08/09 01:44:18;;;;;;;3.60;1.40;;;;;;;;;;6211646;23;20613;-35
2023/08/09 01:46:46;;;;;;;1.50;1.40;;;;;;;;;;6211378;23;20178;-40
2023/08/09 01:49:13;;;;;;;1.60;1.50;;;;;;;;;;6212229;23;20205;-36
2023/08/09 01:51:41;;;;;;;1.50;1.40;;;;;;;;;;6210533;23;20500;-38
2023/08/09 01:54:08;;;;;;;3.80;1.50;;;;;;;;;;6212359;23;20184;-36
2023/08/09 01:56:36;;;;;;;3.40;1.73;;;;;;;;;;6211697;23;20268;-36
2023/08/09 01:59:05;;;;;;;2.23;1.50;;;;;;;;;;6210217;23;20280;-31
2023/08/09 02:01:32;;;;;;;1.77;1.40;;;;;;;;;;6212086;23;20186;-39
2023/08/09 02:04:00;;;;;;;1.50;1.40;;;;;;;;;;6202997;22;20220;-27
2023/08/09 02:06:27;;;;;;;1.40;1.30;;;;;;;;;;6210172;23;20189;-28
2023/08/09 02:08:54;;;;;;;1.20;1.20;;;;;;;;;;6211724;23;20216;-29
2023/08/09 02:11:21;;;;;;;1.23;1.20;;;;;;;;;;6212591;23;20220;-29
2023/08/09 02:13:48;;;;;;;1.50;1.40;;;;;;;;;;6213898;23;20170;-31
2023/08/09 02:16:18;;;;;;;1.50;1.40;;;;;;;;;;6215650;23;20217;-29
2023/08/09 02:18:45;;;;;;;1.63;1.30;;;;;;;;;;6216462;23;20301;-27
2023/08/09 02:21:12;;;;;;;1.60;1.33;;;;;;;;;;6216332;23;20276;-27
2023/08/09 02:23:40;;;;;;;1.40;1.30;;;;;;;;;;6215596;23;20193;-29
2023/08/09 02:26:07;;;;;;;2.13;1.37;;;;;;;;;;6212270;23;20185;-28
2023/08/09 02:28:34;;;;;;;2.17;1.63;;;;;;;;;;6209490;23;20227;-28
2023/08/09 02:31:01;;;;;;;2.37;1.47;;;;;;;;;;6211420;23;20182;-28
2023/08/09 02:33:30;;;;;;;1.90;1.40;;;;;;;;;;6212456;23;20205;-30
2023/08/09 02:35:58;;;;;;;1.50;1.40;;;;;;;;;;6212280;23;20186;-29
2023/08/09 02:38:26;;;;;;;1.50;1.40;;;;;;;;;;6212442;23;20333;-30
2023/08/09 02:40:53;;;;;;;3.53;1.73;;;;;;;;;;6213183;23;20182;-28
2023/08/09 02:43:21;;;;;;;1.60;1.50;;;;;;;;;;6211767;23;20264;-29
2023/08/09 02:45:48;;;;;;;1.53;1.43;;;;;;;;;;6213231;23;20700;-29
2023/08/09 02:48:15;;;;;;;3.60;1.50;;;;;;;;;;6212449;23;20576;-27
2023/08/09 02:50:44;;;;;;;1.50;1.40;;;;;;;;;;6213407;23;20261;-32
2023/08/09 02:53:12;;;;;;;1.30;1.20;;;;;;;;;;6211690;23;20174;-31
2023/08/09 02:55:40;;;;;;;1.30;1.20;;;;;;;;;;6213202;23;20182;-31
2023/08/09 02:58:07;;;;;;;1.40;1.30;;;;;;;;;;6210488;23;20188;-27
2023/08/09 03:00:34;;;;;;;1.67;1.27;;;;;;;;;;6213427;23;20197;-27
2023/08/09 03:03:04;;;;;;;1.63;1.53;;;;;;;;;;6213396;23;20606;-31
2023/08/09 03:05:31;;;;;;;2.43;1.50;;;;;;;;;;6212089;23;20277;-28
2023/08/09 03:08:00;;;;;;;1.97;1.30;;;;;;;;;;6212158;23;20178;-29
2023/08/09 03:10:27;;;;;;;1.70;1.60;;;;;;;;;;6212759;23;20194;-27
2023/08/09 03:12:54;;;;;;;2.20;1.23;;;;;;;;;;6211276;23;20181;-32
2023/08/09 03:15:23;;;;;;;1.63;1.53;;;;;;;;;;6212800;23;20629;-32
2023/08/09 03:17:50;;;;;;;1.70;1.60;;;;;;;;;;6213353;23;20182;-30
2023/08/09 03:20:18;;;;;;;2.40;1.20;;;;;;;;;;6211309;23;20194;-28
2023/08/09 03:22:45;;;;;;;1.67;1.57;;;;;;;;;;6212538;23;20236;-28
2023/08/09 03:25:14;;;;;;;1.50;1.40;;;;;;;;;;6213061;23;20269;-31
2023/08/09 03:27:41;;;;;;;2.80;1.50;;;;;;;;;;6208709;23;20236;-31
2023/08/09 03:30:09;;;;;;;1.40;1.30;;;;;;;;;;6212088;23;20675;-28
2023/08/09 03:32:36;;;;;;;2.00;1.70;;;;;;;;;;6213163;23;20182;-29
2023/08/09 03:35:04;;;;;;;3.33;1.50;;;;;;;;;;6212908;23;20188;-30
2023/08/09 03:37:31;;;;;;;1.60;1.50;;;;;;;;;;6210869;23;20213;-28
2023/08/09 03:39:59;;;;;;;3.50;1.90;;;;;;;;;;6213617;23;20229;-32
2023/08/09 03:42:28;;;;;;;2.33;1.67;;;;;;;;;;6212091;23;20621;-31
2023/08/09 03:44:55;;;;;;;2.00;1.80;;;;;;;;;;6213457;23;20184;-29
2023/08/09 03:47:22;;;;;;;1.30;1.20;;;;;;;;;;6213313;23;20190;-29
2023/08/09 03:49:49;;;;;;;2.60;1.40;;;;;;;;;;6214741;23;20285;-30
2023/08/09 03:52:16;;;;;;;1.47;1.37;;;;;;;;;;6209801;23;20182;-30
2023/08/09 03:54:43;;;;;;;2.70;1.47;;;;;;;;;;6212654;23;20268;-29
2023/08/09 03:57:11;;;;;;;1.87;1.77;;;;;;;;;;6211331;23;20306;-26
2023/08/09 03:59:39;;;;;;;1.97;1.40;;;;;;;;;;6213728;23;20299;-28
2023/08/09 04:02:07;;;;;;;2.90;1.90;;;;;;;;;;6212664;23;20178;-29
2023/08/09 04:04:35;;;;;;;2.27;1.70;;;;;;;;;;6211165;23;20532;-30
2023/08/09 04:07:02;;;;;;;3.57;1.40;;;;;;;;;;6211427;23;20182;-28
2023/08/09 04:09:29;;;;;;;1.63;1.27;;;;;;;;;;6215921;23;20252;-28
2023/08/09 04:11:56;;;;;;;3.60;1.70;;;;;;;;;;6216977;23;20225;-32
2023/08/09 04:14:23;;;;;;;2.03;1.73;;;;;;;;;;6213101;23;20233;-30
2023/08/09 04:16:52;;;;;;;1.50;1.40;;;;;;;;;;6212286;23;20177;-31
2023/08/09 04:19:19;;;;;;;1.60;1.47;;;;;;;;;;6211426;23;20194;-28
2023/08/09 04:21:46;;;;;;;1.37;1.27;;;;;;;;;;6210132;23;20182;-28
2023/08/09 04:24:14;;;;;;;2.13;1.90;;;;;;;;;;6209971;23;20511;-32
2023/08/09 04:26:41;;;;;;;2.80;1.20;;;;;;;;;;6211269;23;20186;-28
2023/08/09 04:29:08;;;;;;;2.37;2.10;;;;;;;;;;6209665;23;20205;-32
2023/08/09 04:31:36;;;;;;;1.57;1.47;;;;;;;;;;6212656;23;20216;-26
2023/08/09 04:34:05;;;;;;;2.70;1.50;;;;;;;;;;6212826;23;20182;-30
2023/08/09 04:36:32;;;;;;;1.40;1.30;;;;;;;;;;6214107;23;20177;-29
2023/08/09 04:38:59;;;;;;;3.00;1.47;;;;;;;;;;6208780;23;20194;-29
2023/08/09 04:41:26;;;;;;;3.10;1.70;;;;;;;;;;6214190;23;20205;-32
2023/08/09 04:43:53;;;;;;;1.87;1.60;;;;;;;;;;6212511;23;20257;-27
2023/08/09 04:46:21;;;;;;;1.70;1.50;;;;;;;;;;6213511;23;20174;-29
2023/08/09 04:48:48;;;;;;;1.73;1.63;;;;;;;;;;6214371;23;20219;-28
2023/08/09 04:51:18;;;;;;;2.10;1.60;;;;;;;;;;6211085;23;20281;-30
2023/08/09 04:53:45;;;;;;;3.43;1.50;;;;;;;;;;6214065;23;20244;-30
2023/08/09 04:56:13;;;;;;;1.40;1.30;;;;;;;;;;6213896;23;20178;-30
2023/08/09 04:58:40;;;;;;;1.40;1.30;;;;;;;;;;6212265;23;20281;-28
2023/08/09 05:01:07;;;;;;;5.07;1.53;;;;;;;;;;6214284;23;20178;-28
2023/08/09 05:03:34;;;;;;;1.67;1.20;;;;;;;;;;6214915;23;20264;-29
2023/08/09 05:06:02;;;;;;;3.50;2.00;;;;;;;;;;6215042;23;20169;-31
2023/08/09 05:08:31;;;;;;;2.23;1.60;;;;;;;;;;6212953;23;20208;-27
2023/08/09 05:10:58;;;;;;;1.77;1.67;;;;;;;;;;6214774;23;20198;-31
2023/08/09 05:13:26;;;;;;;4.03;2.07;;;;;;;;;;6213273;23;20337;-26
2023/08/09 05:15:53;;;;;;;2.03;1.80;;;;;;;;;;6214609;23;20629;-30
2023/08/09 05:18:20;;;;;;;1.80;1.63;;;;;;;;;;6214799;23;20192;-27
2023/08/09 05:20:47;;;;;;;1.83;1.50;;;;;;;;;;6216886;23;20256;-29
2023/08/09 05:23:14;;;;;;;1.40;1.30;;;;;;;;;;6216386;23;20696;-28
2023/08/09 05:25:43;;;;;;;1.20;1.20;;;;;;;;;;6216416;23;20652;-30
2023/08/09 05:28:10;;;;;;;2.63;1.50;;;;;;;;;;6216183;23;20261;-27
2023/08/09 05:30:37;;;;;;;1.70;1.40;;;;;;;;;;6215891;23;20660;-29
2023/08/09 05:33:05;;;;;;;2.70;1.40;;;;;;;;;;6215818;23;20236;-27
2023/08/09 05:35:32;;;;;;;1.63;1.37;;;;;;;;;;6215457;23;20178;-30
2023/08/09 05:37:59;;;;;;;1.57;1.37;;;;;;;;;;6213350;23;20233;-30
2023/08/09 05:40:26;;;;;;;2.47;1.70;;;;;;;;;;6214792;23;20280;-28
2023/08/09 05:42:54;;;;;;;1.77;1.67;;;;;;;;;;6213387;23;20178;-28
2023/08/09 05:45:23;;;;;;;1.47;1.37;;;;;;;;;;6214348;23;20182;-30
2023/08/09 05:47:50;;;;;;;2.07;1.27;;;;;;;;;;6212708;23;20182;-30
2023/08/09 05:50:17;;;;;;;4.70;1.70;;;;;;;;;;6212966;23;20281;-26
2023/08/09 05:52:44;;;;;;;1.50;1.40;;;;;;;;;;6211138;23;20515;-31
2023/08/09 05:55:11;;;;;;;3.40;1.70;;;;;;;;;;6214408;23;20491;-30
2023/08/09 05:57:38;;;;;;;2.33;1.80;;;;;;;;;;6212384;23;20181;-30
2023/08/09 06:00:15;;;;;;;1.80;1.70;;;;;;;;;;6214583;23;20229;-29
2023/08/09 06:02:45;;;;;;;2.57;1.63;;;;;;;;;;6215129;23;20531;-30
2023/08/09 06:05:18;;;;;;;4.20;2.10;;;;;;;;;;6213585;23;20189;-30
2023/08/09 06:07:45;;;;;;;1.80;1.70;;;;;;;;;;6213870;23;20166;-29
2023/08/09 06:10:12;;;;;;;1.53;1.43;;;;;;;;;;6215872;23;20209;-30
2023/08/09 06:12:40;;;;;;;3.83;1.77;;;;;;;;;;6214999;23;20180;-27
2023/08/09 06:15:09;;;;;;;1.70;1.60;;;;;;;;;;6216253;23;20209;-33
2023/08/09 06:17:36;;;;;;;2.63;1.83;;;;;;;;;;6216547;23;20213;-31
2023/08/09 06:20:05;;;;;;;1.80;1.60;;;;;;;;;;6215982;23;20201;-28
2023/08/09 06:22:33;;;;;;;3.47;1.90;;;;;;;;;;6216763;23;20178;-29
2023/08/09 06:25:00;;;;;;;1.70;1.60;;;;;;;;;;6216727;23;20178;-31
2023/08/09 06:27:27;;;;;;;2.40;1.67;;;;;;;;;;6214217;23;20265;-28
2023/08/09 06:29:54;;;;;;;4.73;2.00;;;;;;;;;;6216292;23;20288;-27
2023/08/09 06:32:22;;;;;;;1.93;1.67;;;;;;;;;;6216752;23;20209;-29
2023/08/09 06:34:49;;;;;;;1.77;1.40;;;;;;;;;;6215683;23;20262;-29
2023/08/09 06:37:17;;;;;;;3.53;1.77;;;;;;;;;;6215368;23;20261;-27
2023/08/09 06:39:44;;;;;;;3.60;1.60;;;;;;;;;;6216628;23;20284;-30
2023/08/09 06:42:12;;;;;;;2.73;1.40;;;;;;;;;;6215384;23;20184;-30
2023/08/09 06:44:39;;;;;;;2.23;1.60;;;;;;;;;;6217091;23;20206;-29
2023/08/09 06:47:06;;;;;;;1.60;1.50;;;;;;;;;;6217451;23;20252;-28
2023/08/09 06:49:35;;;;;;;2.27;1.40;;;;;;;;;;6215911;23;20755;-31
2023/08/09 06:52:02;;;;;;;2.00;1.80;;;;;;;;;;6213155;23;20676;-29
2023/08/09 06:54:29;;;;;;;2.37;2.00;;;;;;;;;;6213763;23;20185;-31
2023/08/09 06:56:56;;;;;;;1.77;1.50;;;;;;;;;;6213136;23;20182;-28
2023/08/09 06:59:23;;;;;;;1.67;1.57;;;;;;;;;;6215000;23;20202;-27
2023/08/09 07:01:51;;;;;;;2.20;1.70;;;;;;;;;;6216550;23;20174;-30
2023/08/09 07:04:19;;;;;;;1.73;1.63;;;;;;;;;;6216036;23;20217;-28
2023/08/09 07:06:47;;;;;;;2.50;1.53;;;;;;;;;;6214732;23;20206;-31
2023/08/09 07:09:18;;;;;;;2.23;1.80;;;;;;;;;;6215732;23;20258;-29
2023/08/09 07:11:45;;;;;;;1.60;1.33;;;;;;;;;;6215472;23;20201;-29
2023/08/09 07:14:13;;;;;;;1.40;1.30;;;;;;;;;;6214444;23;20178;-30
2023/08/09 07:16:40;;;;;;;3.33;1.80;;;;;;;;;;6214968;23;20170;-31
2023/08/09 07:19:10;;;;;;;2.93;1.57;;;;;;;;;;6216074;23;20202;-29
2023/08/09 07:21:37;;;;;;;1.53;1.43;;;;;;;;;;6214730;23;20232;-27
2023/08/09 07:24:06;;;;;;;2.10;1.50;;;;;;;;;;6215523;23;20205;-32
2023/08/09 07:26:33;;;;;;;1.93;1.73;;;;;;;;;;6214837;23;20182;-26
2023/08/09 07:29:00;;;;;;;2.50;1.40;;;;;;;;;;6213260;23;20194;-31
2023/08/09 07:31:28;;;;;;;1.90;1.70;;;;;;;;;;6215653;23;20198;-26
2023/08/09 07:33:55;;;;;;;2.50;1.83;;;;;;;;;;6216298;23;20220;-33
2023/08/09 07:36:22;;;;;;;2.57;1.50;;;;;;;;;;6213768;23;20170;-28
2023/08/09 07:38:49;;;;;;;1.80;1.43;;;;;;;;;;6215551;23;20212;-32
2023/08/09 07:41:18;;;;;;;1.83;1.70;;;;;;;;;;6216200;23;20178;-30
2023/08/09 07:43:45;;;;;;;1.27;1.27;;;;;;;;;;6214689;23;20178;-30
2023/08/09 07:46:12;;;;;;;2.50;1.80;;;;;;;;;;6210871;23;20673;-30
2023/08/09 07:48:40;;;;;;;1.83;1.50;;;;;;;;;;6208469;23;20746;-31
2023/08/09 07:51:11;;;;;;;2.50;1.73;;;;;;;;;;6211547;23;20193;-32
2023/08/09 07:53:38;;;;;;;2.37;1.60;;;;;;;;;;6211705;23;20201;-28
2023/08/09 07:56:05;;;;;;;5.57;1.83;;;;;;;;;;6209883;23;20236;-31
2023/08/09 07:58:34;;;;;;;3.23;1.73;;;;;;;;;;6206425;23;20178;-30
2023/08/09 08:01:04;;;;;;;2.73;1.40;;;;;;;;;;6209182;23;20188;-29
2023/08/09 08:03:31;;;;;;;2.67;1.50;;;;;;;;;;6210051;23;20257;-31
2023/08/09 08:05:58;;;;;;;5.13;1.70;;;;;;;;;;6208774;23;20162;-28
2023/08/09 08:08:25;;;;;;;3.37;1.77;;;;;;;;;;6208353;23;20240;-30
2023/08/09 08:10:53;;;;;;;3.73;1.30;;;;;;;;;;6211207;23;20198;-30
2023/08/09 08:13:20;;;;;;;1.83;1.60;;;;;;;;;;6211402;23;20178;-32
2023/08/09 08:15:50;;;;;;;3.33;1.50;;;;;;;;;;6211953;23;20182;-29
2023/08/09 08:18:17;;;;;;;1.77;1.53;;;;;;;;;;6210295;23;20232;-26
2023/08/09 08:20:44;;;;;;;2.03;1.40;;;;;;;;;;6212243;23;20556;-30
2023/08/09 08:23:11;;;;;;;1.97;1.30;;;;;;;;;;6210566;23;20193;-32
2023/08/09 08:25:39;;;;;;;2.87;1.57;;;;;;;;;;6212771;23;20264;-28
2023/08/09 08:28:06;;;;;;;1.93;1.30;;;;;;;;;;6213387;23;20236;-32
2023/08/09 08:30:34;;;;;;;1.57;1.47;;;;;;;;;;6214913;23;20641;-30
2023/08/09 08:33:02;;;;;;;2.13;1.30;;;;;;;;;;6216133;23;20188;-27
2023/08/09 08:35:36;;;;;;;3.07;1.50;;;;;;;;;;6216141;23;20231;-28
2023/08/09 08:38:04;;;;;;;2.13;1.93;;;;;;;;;;6215926;23;20173;-30
2023/08/09 08:40:31;;;;;;;1.17;1.07;;;;;;;;;;6214522;23;20204;-30
2023/08/09 08:42:59;;;;;;;1.60;1.47;;;;;;;;;;6211616;23;20244;-31
2023/08/09 08:45:27;;;;;;;2.77;1.20;;;;;;;;;;6209443;23;20636;-31
2023/08/09 08:47:54;;;;;;;2.47;1.17;;;;;;;;;;6207703;23;20186;-28
2023/08/09 08:50:25;;;;;;;4.77;1.40;;;;;;;;;;6211739;23;20261;-28
2023/08/09 08:52:53;;;;;;;1.73;0.93;;;;;;;;;;6210345;23;20162;-27
2023/08/09 08:55:20;;;;;;;2.40;1.20;;;;;;;;;;6211833;23;20178;-31
2023/08/09 08:57:47;;;;;;;1.20;1.10;;;;;;;;;;6209074;23;20184;-30
2023/08/09 09:00:17;;;;;;;4.00;1.30;;;;;;;;;;6211032;23;20204;-30
2023/08/09 09:02:44;;;;;;;3.63;1.20;;;;;;;;;;6212237;23;20554;-31
2023/08/09 09:05:12;;;;;;;2.07;1.23;;;;;;;;;;6211304;23;20701;-29
2023/08/09 09:07:41;;;;;;;1.70;1.60;;;;;;;;;;6209164;23;20182;-31
2023/08/09 09:10:10;;;;;;;3.70;1.30;;;;;;;;;;6211661;23;20198;-30
2023/08/09 09:12:37;;;;;;;1.93;1.30;;;;;;;;;;6208148;23;20209;-32
2023/08/09 09:15:05;;;;;;;1.40;1.00;;;;;;;;;;6210909;23;20178;-31
2023/08/09 09:17:37;;;;;;;1.43;1.30;;;;;;;;;;6211195;23;20181;-32
2023/08/09 09:20:09;;;;;;;2.60;1.23;;;;;;;;;;6212852;23;20197;-29
2023/08/09 09:22:36;;;;;;;2.97;1.30;;;;;;;;;;6215250;23;20162;-30
2023/08/09 09:25:10;;;;;;;0.93;0.93;;;;;;;;;;6214712;23;20261;-30
2023/08/09 09:27:38;;;;;;;1.43;1.20;;;;;;;;;;6210901;23;20561;-30
2023/08/09 09:30:12;;;;;;;1.13;1.10;;;;;;;;;;6212251;23;20269;-31
2023/08/09 09:32:39;;;;;;;1.53;1.23;;;;;;;;;;6211408;23;20182;-31
2023/08/09 09:35:08;;;;;;;1.90;1.30;;;;;;;;;;6210615;23;20599;-28
2023/08/09 09:37:36;;;;;;;3.47;1.60;;;;;;;;;;6210228;23;20181;-25
2023/08/09 09:40:10;;;;;;;1.80;1.47;;;;;;;;;;6211748;23;20285;-28
2023/08/09 09:42:39;;;;;;;2.60;1.47;;;;;;;;;;6210736;23;20158;-29
2023/08/09 09:45:07;;;;;;;2.73;1.40;;;;;;;;;;6213685;23;20201;-31
2023/08/09 09:47:34;;;;;;;2.00;1.30;;;;;;;;;;6212541;23;20260;-34
2023/08/09 09:50:02;;;;;;;6.83;1.40;;;;;;;;;;6212710;23;20625;-26
2023/08/09 09:52:31;;;;;;;2.70;1.30;;;;;;;;;;6212070;23;20236;-30
2023/08/09 09:54:58;;;;;;;3.40;1.40;;;;;;;;;;6212606;23;20251;-31
2023/08/09 09:57:25;;;;;;;1.83;1.20;;;;;;;;;;6210513;23;20228;-29
2023/08/09 09:59:59;;;;;;;2.13;1.33;;;;;;;;;;6212739;23;20233;-28
2023/08/09 10:02:29;;;;;;;1.97;1.53;;;;;;;;;;6212224;23;20617;-27
2023/08/09 10:04:58;;;;;;;3.80;1.40;;;;;;;;;;6210829;23;20269;-32
2023/08/09 10:07:32;;;;;;;2.47;1.27;;;;;;;;;;6211262;23;20184;-29
2023/08/09 10:10:02;;;;;;;1.23;1.17;;;;;;;;;;6213184;23;20706;-30
2023/08/09 10:12:29;;;;;;;2.17;1.30;;;;;;;;;;6210640;23;20209;-28
2023/08/09 10:14:58;;;;;;;2.40;1.50;;;;;;;;;;6210800;23;20862;-31
2023/08/09 10:17:27;;;;;;;1.67;1.40;;;;;;;;;;6209219;23;20716;-28
2023/08/09 10:19:55;;;;;;;2.23;1.63;;;;;;;;;;6209983;23;20430;-31
2023/08/09 10:22:23;;;;;;;1.37;1.27;;;;;;;;;;6211485;23;20681;-33
2023/08/09 10:24:51;;;;;;;2.27;1.40;;;;;;;;;;6215151;23;20167;-30
2023/08/09 10:27:33;;;;;;;3.47;1.93;;;;;;;;;;6212191;23;20182;-28
2023/08/09 10:30:06;;;;;;;1.97;1.40;;;;;;;;;;6215219;23;20234;-31
2023/08/09 10:32:49;;;;;;;3.37;1.57;;;;;;;;;;6215693;23;20221;-30
2023/08/09 10:35:42;;;;;;;1.93;1.40;;;;;;;;;;6216128;23;20159;-30
2023/08/09 10:38:18;;;;;;;2.17;1.43;;;;;;;;;;6213859;23;20169;-29
2023/08/09 10:40:45;;;;;;;3.40;1.33;;;;;;;;;;6214892;23;20167;-30
2023/08/09 10:43:18;;;;;;;1.70;1.53;;;;;;;;;;6208069;23;20175;-30
2023/08/09 10:45:48;;;;;;;1.87;1.33;;;;;;;;;;6212954;23;20621;-30
2023/08/09 10:48:21;;;;;;;1.43;1.30;;;;;;;;;;6212132;23;20188;-29
2023/08/09 10:50:48;;;;;;;1.53;1.20;;;;;;;;;;6215993;23;20496;-31
2023/08/09 10:53:21;;;;;;;3.33;1.70;;;;;;;;;;6215204;23;20256;-29
2023/08/09 10:55:49;;;;;;;3.07;1.53;;;;;;;;;;6215064;23;20176;-28
2023/08/09 10:58:26;;;;;;;1.67;1.50;;;;;;;;;;6213804;23;20259;-31
2023/08/09 11:00:55;;;;;;;1.60;1.50;;;;;;;;;;6215997;23;20163;-28
2023/08/09 11:03:23;;;;;;;1.83;1.33;;;;;;;;;;6216188;23;20569;-27
2023/08/09 11:05:51;;;;;;;3.13;1.47;;;;;;;;;;6214171;23;20174;-30
2023/08/09 11:08:19;;;;;;;3.47;1.60;;;;;;;;;;6215081;23;20264;-31
2023/08/09 11:10:48;;;;;;;2.80;1.53;;;;;;;;;;6215770;23;20174;-30
2023/08/09 11:13:18;;;;;;;1.43;1.33;;;;;;;;;;6214398;23;20203;-31
2023/08/09 11:16:07;;;;;;;3.53;1.50;;;;;;;;;;6215839;23;20222;-30
2023/08/09 11:18:34;;;;;;;1.60;1.47;;;;;;;;;;6215356;23;20176;-28
2023/08/09 11:21:02;;;;;;;2.37;1.30;;;;;;;;;;6215732;23;20189;-32
2023/08/09 11:23:30;;;;;;;1.80;1.60;;;;;;;;;;6214350;23;20256;-33
2023/08/09 11:25:58;;;;;;;2.53;1.47;;;;;;;;;;6215169;23;20244;-30
2023/08/09 11:28:26;;;;;;;3.03;1.57;;;;;;;;;;6210699;23;20177;-28
2023/08/09 11:30:53;;;;;;;1.50;1.20;;;;;;;;;;6216164;23;20285;-28
2023/08/09 11:33:21;;;;;;;2.90;1.57;;;;;;;;;;6217168;23;20233;-29
2023/08/09 11:35:49;;;;;;;3.30;1.50;;;;;;;;;;6216408;23;20261;-31
2023/08/09 11:41:25;;;;;;;4.20;1.50;;;;;;;;;;6216949;23;20200;-31
2023/08/09 11:43:52;;;;;;;1.73;1.60;;;;;;;;;;6214432;23;20246;-30
2023/08/09 11:46:21;;;;;;;1.80;1.33;;;;;;;;;;6215442;23;20182;-30
2023/08/09 11:48:50;;;;;;;2.20;1.50;;;;;;;;;;6215527;23;20209;-29
2023/08/09 11:51:19;;;;;;;2.17;1.30;;;;;;;;;;6215699;23;20189;-30
2023/08/09 11:53:48;;;;;;;1.53;1.20;;;;;;;;;;6215325;23;20213;-33
2023/08/09 11:56:18;;;;;;;2.40;1.17;;;;;;;;;;6216703;23;20214;-29
2023/08/09 11:58:55;;;;;;;1.63;1.53;;;;;;;;;;6216025;23;20252;-32
2023/08/09 12:01:23;;;;;;;1.50;1.40;;;;;;;;;;6215364;23;20570;-31
2023/08/09 12:03:53;;;;;;;2.77;1.60;;;;;;;;;;6214543;23;20186;-29
2023/08/09 12:06:20;;;;;;;3.93;1.37;;;;;;;;;;6213270;23;20167;-30
2023/08/09 12:08:47;;;;;;;2.70;1.53;;;;;;;;;;6214422;23;20198;-28
2023/08/09 12:11:18;;;;;;;2.67;1.43;;;;;;;;;;6214458;23;20189;-31
2023/08/09 12:13:45;;;;;;;3.33;1.60;;;;;;;;;;6213433;23;20183;-28
2023/08/09 12:16:12;;;;;;;1.50;1.30;;;;;;;;;;6213871;23;20283;-30
2023/08/09 12:18:39;;;;;;;2.13;1.40;;;;;;;;;;6214881;23;20283;-30
2023/08/09 12:21:08;;;;;;;4.20;1.50;;;;;;;;;;6213060;23;20179;-33
2023/08/09 12:23:38;;;;;;;2.43;1.30;;;;;;;;;;6212805;23;20219;-32
2023/08/09 12:26:07;;;;;;;3.13;1.43;;;;;;;;;;6212777;23;20206;-31
2023/08/09 12:28:34;;;;;;;1.97;1.47;;;;;;;;;;6212060;23;20183;-31
2023/08/09 12:31:02;;;;;;;4.00;1.53;;;;;;;;;;6214601;23;20180;-27
2023/08/09 12:33:30;;;;;;;2.53;1.47;;;;;;;;;;6214337;23;20221;-32
2023/08/09 12:35:57;;;;;;;1.70;1.50;;;;;;;;;;6213758;23;20176;-29
2023/08/09 12:38:25;;;;;;;4.40;1.73;;;;;;;;;;6212434;23;20646;-29
2023/08/09 12:40:52;;;;;;;3.10;1.70;;;;;;;;;;6214916;23;20189;-31
2023/08/09 12:43:20;;;;;;;3.20;1.47;;;;;;;;;;6213400;23;20217;-26
2023/08/09 12:45:47;;;;;;;2.30;1.33;;;;;;;;;;6214772;23;20242;-29
2023/08/09 12:48:15;;;;;;;2.80;1.40;;;;;;;;;;6214460;23;20189;-29
2023/08/09 12:50:42;;;;;;;1.93;1.33;;;;;;;;;;6210508;23;20183;-33
2023/08/09 12:53:09;;;;;;;4.83;1.40;;;;;;;;;;6212479;23;20206;-30
2023/08/09 12:55:37;;;;;;;1.47;1.20;;;;;;;;;;6214170;23;20230;-31
2023/08/09 12:58:07;;;;;;;1.30;1.20;;;;;;;;;;6210987;23;20901;-32
2023/08/09 13:00:35;;;;;;;3.93;1.40;;;;;;;;;;6213142;23;20212;-30
2023/08/09 13:03:03;;;;;;;1.53;1.30;;;;;;;;;;6213742;23;20186;-31
2023/08/09 13:05:30;;;;;;;4.63;1.50;;;;;;;;;;6214001;23;20212;-29
2023/08/09 13:07:57;;;;;;;1.73;1.20;;;;;;;;;;6212900;23;20305;-27
2023/08/09 13:10:24;;;;;;;1.73;1.33;;;;;;;;;;6214363;23;20670;-28
2023/08/09 13:12:52;;;;;;;1.50;1.30;;;;;;;;;;6213760;23;20209;-27
2023/08/09 13:15:19;;;;;;;2.07;1.40;;;;;;;;;;6214986;23;20192;-28
2023/08/09 13:17:47;;;;;;;2.83;1.53;;;;;;;;;;6214741;23;20186;-27
2023/08/09 13:20:16;;;;;;;1.80;1.00;;;;;;;;;;6215085;23;20589;-30
2023/08/09 13:22:43;;;;;;;2.70;1.40;;;;;;;;;;6213297;23;20216;-30
2023/08/09 13:25:11;;;;;;;2.77;1.37;;;;;;;;;;6214891;23;20258;-30
2023/08/09 13:27:38;;;;;;;2.43;1.37;;;;;;;;;;6213713;23;20202;-32
2023/08/09 13:30:08;;;;;;;3.47;1.70;;;;;;;;;;6215480;23;20278;-31
2023/08/09 13:32:35;;;;;;;2.70;1.23;;;;;;;;;;6214634;23;20206;-28
2023/08/09 13:35:02;;;;;;;1.73;1.37;;;;;;;;;;6214759;23;20178;-31
2023/08/09 13:37:29;;;;;;;2.73;1.27;;;;;;;;;;6212779;23;20262;-29
2023/08/09 13:39:57;;;;;;;1.47;1.30;;;;;;;;;;6214860;23;20286;-30
2023/08/09 13:42:24;;;;;;;1.47;1.37;;;;;;;;;;6213295;23;20213;-35
2023/08/09 13:44:52;;;;;;;1.80;1.30;;;;;;;;;;6213691;23;20290;-29
2023/08/09 13:47:20;;;;;;;2.47;1.00;;;;;;;;;;6212160;23;20257;-27
2023/08/09 13:49:48;;;;;;;1.10;1.00;;;;;;;;;;6212802;23;20199;-28
2023/08/09 13:52:16;;;;;;;1.47;1.37;;;;;;;;;;6213639;23;20206;-28
2023/08/09 13:54:43;;;;;;;1.20;1.10;;;;;;;;;;6212827;23;20190;-29
2023/08/09 13:57:11;;;;;;;1.93;1.50;;;;;;;;;;6210824;23;20641;-31
2023/08/09 13:59:38;;;;;;;3.30;1.30;;;;;;;;;;6214054;23;20211;-29
2023/08/09 14:02:05;;;;;;;1.37;1.27;;;;;;;;;;6214342;23;20178;-32
2023/08/09 14:04:47;;;;;;;1.37;1.20;;;;;;;;;;6214388;23;20223;-29
2023/08/09 14:07:18;;;;;;;3.83;1.30;;;;;;;;;;6212581;23;20193;-33
2023/08/09 14:09:46;;;;;;;1.63;1.23;;;;;;;;;;6214317;23;20480;-30
2023/08/09 14:12:13;;;;;;;1.57;1.37;;;;;;;;;;6213691;23;20187;-31
2023/08/09 14:14:40;;;;;;;1.60;1.50;;;;;;;;;;6212129;23;20184;-30
2023/08/09 14:17:08;;;;;;;1.73;1.27;;;;;;;;;;6212974;23;20267;-31
2023/08/09 14:19:35;;;;;;;1.40;1.30;;;;;;;;;;6215161;23;20232;-31
2023/08/09 14:22:03;;;;;;;1.30;1.20;;;;;;;;;;6212121;23;20507;-29
2023/08/09 14:24:33;;;;;;;2.60;1.37;;;;;;;;;;6213529;23;20226;-28
2023/08/09 14:27:02;;;;;;;3.33;1.40;;;;;;;;;;6214023;23;20214;-29
2023/08/09 14:29:32;;;;;;;1.23;1.13;;;;;;;;;;6215328;23;20737;-30
2023/08/09 14:37:14;;;;;;;1.33;1.17;;;;;;;;;;6184340;23;20184;-36
2023/08/09 14:40:00;;;;;;;1.30;1.20;;;;;;;;;;6185589;23;20273;-33
2023/08/09 14:42:28;;;;;;;1.40;1.30;;;;;;;;;;6185480;23;20178;-39
2023/08/09 14:44:58;;;;;;;1.57;1.20;;;;;;;;;;6184698;23;20188;-38
2023/08/09 14:47:25;;;;;;;2.87;1.47;;;;;;;;;;6184159;23;20273;-35
2023/08/09 14:49:52;;;;;;;1.50;1.40;;;;;;;;;;6184227;23;20204;-37
2023/08/09 14:57:25;;;;;;;1.83;1.20;;;;;;;;;;6184231;23;20181;-37
2023/08/09 14:59:53;;;;;;;1.23;1.13;;;;;;;;;;6184382;23;20196;-37
2023/08/09 15:02:20;;;;;;;1.37;1.23;;;;;;;;;;6183047;23;20183;-39